sensor_id;sensor_type;location;lat;lon;timestamp;temperature;humidity
39079;DHT22;24829;49.208;12.080;2023-02-05T00:02:24;-1.80;99.90
39079;DHT22;24829;49.208;12.080;2023-02-05T00:04:49;-1.80;99.90
39079;DHT22;24829;49.208;12.080;2023-02-05T00:07:15;-1.90;99.90
39079;DHT22;24829;49.208;12.080;2023-02-05T00:09:40;-1.90;99.90
39079;DHT22;24829;49.208;12.080;2023-02-05T00:12:06;-1.90;99.90
39079;DHT22;24829;49.208;12.080;2023-02-05T00:14:32;-1.90;99.90
39079;DHT22;24829;49.208;12.080;2023-02-05T00:16:58;-1.90;99.90
39079;DHT22;24829;49.208;12.080;2023-02-05T00:19:23;-1.80;99.90
39079;DHT22;24829;49.208;12.080;2023-02-05T00:21:49;-1.80;99.90
39079;DHT22;24829;49.208;12.080;2023-02-05T00:24:14;-1.80;99.90
39079;DHT22;24829;49.208;12.080;2023-02-05T00:26:40;-1.90;99.90
39079;DHT22;24829;49.208;12.080;2023-02-05T00:29:06;-2.00;99.90
39079;DHT22;24829;49.208;12.080;2023-02-05T00:31:31;-2.20;99.90
39079;DHT22;24829;49.208;12.080;2023-02-05T00:33:57;-2.40;99.90
39079;DHT22;24829;49.208;12.080;2023-02-05T00:36:23;-2.60;99.90
39079;DHT22;24829;49.208;12.080;2023-02-05T00:38:50;-2.70;99.90
39079;DHT22;24829;49.208;12.080;2023-02-05T00:41:16;-2.80;99.90
39079;DHT22;24829;49.208;12.080;2023-02-05T00:43:42;-2.80;99.90
39079;DHT22;24829;49.208;12.080;2023-02-05T00:46:09;-2.90;99.90
39079;DHT22;24829;49.208;12.080;2023-02-05T00:48:35;-3.00;99.90
39079;DHT22;24829;49.208;12.080;2023-02-05T00:51:01;-3.00;99.90
39079;DHT22;24829;49.208;12.080;2023-02-05T00:53:27;-3.00;99.90
39079;DHT22;24829;49.208;12.080;2023-02-05T00:55:53;-2.90;99.90
39079;DHT22;24829;49.208;12.080;2023-02-05T00:58:18;-2.90;99.90
39079;DHT22;24829;49.208;12.080;2023-02-05T01:00:44;-2.90;99.90
39079;DHT22;24829;49.208;12.080;2023-02-05T01:03:11;-2.80;99.90
39079;DHT22;24829;49.208;12.080;2023-02-05T01:05:37;-2.80;99.90
39079;DHT22;24829;49.208;12.080;2023-02-05T01:08:04;-2.80;99.90
39079;DHT22;24829;49.208;12.080;2023-02-05T01:10:31;-2.80;99.90
39079;DHT22;24829;49.208;12.080;2023-02-05T01:12:56;-2.80;99.90
39079;DHT22;24829;49.208;12.080;2023-02-05T01:15:22;-2.80;99.90
39079;DHT22;24829;49.208;12.080;2023-02-05T01:17:47;-2.70;99.90
39079;DHT22;24829;49.208;12.080;2023-02-05T01:20:14;-2.70;99.90
39079;DHT22;24829;49.208;12.080;2023-02-05T01:22:39;-2.70;99.90
39079;DHT22;24829;49.208;12.080;2023-02-05T01:25:05;-2.70;99.90
39079;DHT22;24829;49.208;12.080;2023-02-05T01:27:32;-2.70;99.90
39079;DHT22;24829;49.208;12.080;2023-02-05T01:29:58;-2.70;99.90
39079;DHT22;24829;49.208;12.080;2023-02-05T01:32:23;-2.70;99.90
39079;DHT22;24829;49.208;12.080;2023-02-05T01:34:49;-2.70;99.90
39079;DHT22;24829;49.208;12.080;2023-02-05T01:37:15;-2.70;99.90
39079;DHT22;24829;49.208;12.080;2023-02-05T01:39:41;-2.70;99.90
39079;DHT22;24829;49.208;12.080;2023-02-05T01:44:40;-2.70;99.90
39079;DHT22;24829;49.208;12.080;2023-02-05T01:47:06;-2.70;99.90
39079;DHT22;24829;49.208;12.080;2023-02-05T01:49:37;-2.70;99.90
39079;DHT22;24829;49.208;12.080;2023-02-05T01:52:07;-2.80;99.90
39079;DHT22;24829;49.208;12.080;2023-02-05T01:54:35;-2.80;99.90
39079;DHT22;24829;49.208;12.080;2023-02-05T01:57:05;-2.80;99.90
39079;DHT22;24829;49.208;12.080;2023-02-05T01:59:33;-2.80;99.90
39079;DHT22;24829;49.208;12.080;2023-02-05T02:02:00;-2.70;99.90
39079;DHT22;24829;49.208;12.080;2023-02-05T02:04:40;-2.70;99.90
39079;DHT22;24829;49.208;12.080;2023-02-05T02:07:09;-2.70;99.90
39079;DHT22;24829;49.208;12.080;2023-02-05T02:09:36;-2.60;99.90
39079;DHT22;24829;49.208;12.080;2023-02-05T02:12:03;-2.60;99.90
39079;DHT22;24829;49.208;12.080;2023-02-05T02:14:31;-2.60;99.90
39079;DHT22;24829;49.208;12.080;2023-02-05T02:16:59;-2.50;99.90
39079;DHT22;24829;49.208;12.080;2023-02-05T02:19:33;-2.50;99.90
39079;DHT22;24829;49.208;12.080;2023-02-05T02:22:26;-2.60;99.90
39079;DHT22;24829;49.208;12.080;2023-02-05T02:25:11;-2.60;99.90
39079;DHT22;24829;49.208;12.080;2023-02-05T02:27:43;-2.60;99.90
39079;DHT22;24829;49.208;12.080;2023-02-05T02:30:54;-2.60;99.90
39079;DHT22;24829;49.208;12.080;2023-02-05T02:33:28;-2.60;99.90
39079;DHT22;24829;49.208;12.080;2023-02-05T02:38:54;-2.60;99.90
39079;DHT22;24829;49.208;12.080;2023-02-05T02:41:32;-2.80;99.90
39079;DHT22;24829;49.208;12.080;2023-02-05T02:44:08;-2.90;99.90
39079;DHT22;24829;49.208;12.080;2023-02-05T02:46:50;-3.00;99.90
39079;DHT22;24829;49.208;12.080;2023-02-05T02:49:25;-3.10;99.90
39079;DHT22;24829;49.208;12.080;2023-02-05T02:51:53;-3.20;99.90
39079;DHT22;24829;49.208;12.080;2023-02-05T02:54:20;-3.30;99.90
39079;DHT22;24829;49.208;12.080;2023-02-05T02:56:47;-3.40;99.90
39079;DHT22;24829;49.208;12.080;2023-02-05T02:59:17;-3.40;99.90
39079;DHT22;24829;49.208;12.080;2023-02-05T03:01:47;-3.40;99.90
39079;DHT22;24829;49.208;12.080;2023-02-05T03:04:18;-3.50;99.90
39079;DHT22;24829;49.208;12.080;2023-02-05T03:06:49;-3.50;99.90
39079;DHT22;24829;49.208;12.080;2023-02-05T03:12:04;-3.50;99.90
39079;DHT22;24829;49.208;12.080;2023-02-05T03:14:31;-3.50;99.90
39079;DHT22;24829;49.208;12.080;2023-02-05T03:16:57;-3.50;99.90
39079;DHT22;24829;49.208;12.080;2023-02-05T03:19:23;-3.50;99.90
39079;DHT22;24829;49.208;12.080;2023-02-05T03:21:53;-3.40;99.90
39079;DHT22;24829;49.208;12.080;2023-02-05T03:24:20;-3.50;99.90
39079;DHT22;24829;49.208;12.080;2023-02-05T03:26:46;-3.40;99.90
39079;DHT22;24829;49.208;12.080;2023-02-05T03:29:15;-3.50;99.90
39079;DHT22;24829;49.208;12.080;2023-02-05T03:45:53;-3.50;99.90
39079;DHT22;24829;49.208;12.080;2023-02-05T03:54:03;-3.50;99.90
39079;DHT22;24829;49.208;12.080;2023-02-05T03:56:48;-3.50;99.90
39079;DHT22;24829;49.208;12.080;2023-02-05T03:59:17;-3.40;99.90
39079;DHT22;24829;49.208;12.080;2023-02-05T04:01:44;-3.50;99.90
39079;DHT22;24829;49.208;12.080;2023-02-05T04:04:10;-3.50;99.90
39079;DHT22;24829;49.208;12.080;2023-02-05T04:06:36;-3.50;99.90
39079;DHT22;24829;49.208;12.080;2023-02-05T04:09:02;-3.50;99.90
39079;DHT22;24829;49.208;12.080;2023-02-05T04:11:27;-3.50;99.90
39079;DHT22;24829;49.208;12.080;2023-02-05T04:13:53;-3.50;99.90
39079;DHT22;24829;49.208;12.080;2023-02-05T04:16:18;-3.50;99.90
39079;DHT22;24829;49.208;12.080;2023-02-05T04:18:44;-3.40;99.90
39079;DHT22;24829;49.208;12.080;2023-02-05T04:21:09;-3.40;99.90
39079;DHT22;24829;49.208;12.080;2023-02-05T04:23:35;-3.40;99.90
39079;DHT22;24829;49.208;12.080;2023-02-05T04:26:01;-3.40;99.90
39079;DHT22;24829;49.208;12.080;2023-02-05T04:28:26;-3.50;99.90
39079;DHT22;24829;49.208;12.080;2023-02-05T04:30:52;-3.50;99.90
39079;DHT22;24829;49.208;12.080;2023-02-05T04:33:17;-3.50;99.90
39079;DHT22;24829;49.208;12.080;2023-02-05T04:35:43;-3.50;99.90
39079;DHT22;24829;49.208;12.080;2023-02-05T04:38:08;-3.50;99.90
39079;DHT22;24829;49.208;12.080;2023-02-05T04:40:34;-3.50;99.90
39079;DHT22;24829;49.208;12.080;2023-02-05T04:42:59;-3.40;99.90
39079;DHT22;24829;49.208;12.080;2023-02-05T04:45:25;-3.40;99.90
39079;DHT22;24829;49.208;12.080;2023-02-05T04:47:55;-3.40;99.90
39079;DHT22;24829;49.208;12.080;2023-02-05T04:50:21;-3.40;99.90
39079;DHT22;24829;49.208;12.080;2023-02-05T04:52:47;-3.40;99.90
39079;DHT22;24829;49.208;12.080;2023-02-05T04:55:12;-3.40;99.90
39079;DHT22;24829;49.208;12.080;2023-02-05T04:57:38;-3.30;99.90
39079;DHT22;24829;49.208;12.080;2023-02-05T05:00:04;-3.40;99.90
39079;DHT22;24829;49.208;12.080;2023-02-05T05:02:30;-3.50;99.90
39079;DHT22;24829;49.208;12.080;2023-02-05T05:04:56;-3.60;99.90
39079;DHT22;24829;49.208;12.080;2023-02-05T05:07:21;-3.70;99.90
39079;DHT22;24829;49.208;12.080;2023-02-05T05:09:47;-3.80;99.90
39079;DHT22;24829;49.208;12.080;2023-02-05T05:12:12;-3.80;99.90
39079;DHT22;24829;49.208;12.080;2023-02-05T05:14:38;-3.80;99.90
39079;DHT22;24829;49.208;12.080;2023-02-05T05:17:04;-3.90;99.90
39079;DHT22;24829;49.208;12.080;2023-02-05T05:19:29;-3.90;99.90
39079;DHT22;24829;49.208;12.080;2023-02-05T05:21:55;-3.90;99.90
39079;DHT22;24829;49.208;12.080;2023-02-05T05:24:20;-4.00;99.90
39079;DHT22;24829;49.208;12.080;2023-02-05T05:26:46;-4.00;99.90
39079;DHT22;24829;49.208;12.080;2023-02-05T05:29:12;-4.10;99.90
39079;DHT22;24829;49.208;12.080;2023-02-05T05:31:39;-4.10;99.90
39079;DHT22;24829;49.208;12.080;2023-02-05T05:34:04;-4.10;99.90
39079;DHT22;24829;49.208;12.080;2023-02-05T05:36:30;-4.10;99.90
39079;DHT22;24829;49.208;12.080;2023-02-05T05:38:56;-4.10;99.90
39079;DHT22;24829;49.208;12.080;2023-02-05T05:41:41;-4.10;99.90
39079;DHT22;24829;49.208;12.080;2023-02-05T05:44:30;-3.90;99.90
39079;DHT22;24829;49.208;12.080;2023-02-05T05:46:55;-3.90;99.90
39079;DHT22;24829;49.208;12.080;2023-02-05T05:49:21;-3.90;99.90
39079;DHT22;24829;49.208;12.080;2023-02-05T05:51:46;-3.90;99.90
39079;DHT22;24829;49.208;12.080;2023-02-05T05:54:12;-3.90;99.90
39079;DHT22;24829;49.208;12.080;2023-02-05T05:56:37;-3.90;99.90
39079;DHT22;24829;49.208;12.080;2023-02-05T05:59:03;-3.90;99.90
39079;DHT22;24829;49.208;12.080;2023-02-05T06:01:29;-3.90;99.90
39079;DHT22;24829;49.208;12.080;2023-02-05T06:03:54;-3.90;99.90
39079;DHT22;24829;49.208;12.080;2023-02-05T06:06:20;-3.90;99.90
39079;DHT22;24829;49.208;12.080;2023-02-05T06:08:46;-3.90;99.90
39079;DHT22;24829;49.208;12.080;2023-02-05T06:11:11;-3.90;99.90
39079;DHT22;24829;49.208;12.080;2023-02-05T06:13:37;-3.90;99.90
39079;DHT22;24829;49.208;12.080;2023-02-05T06:16:03;-3.90;99.90
39079;DHT22;24829;49.208;12.080;2023-02-05T06:18:29;-3.90;99.90
39079;DHT22;24829;49.208;12.080;2023-02-05T06:20:55;-3.90;99.90
39079;DHT22;24829;49.208;12.080;2023-02-05T06:23:20;-3.90;99.90
39079;DHT22;24829;49.208;12.080;2023-02-05T06:25:46;-3.80;99.90
39079;DHT22;24829;49.208;12.080;2023-02-05T06:28:11;-3.80;99.90
39079;DHT22;24829;49.208;12.080;2023-02-05T06:30:37;-3.70;99.90
39079;DHT22;24829;49.208;12.080;2023-02-05T06:33:03;-3.60;99.90
39079;DHT22;24829;49.208;12.080;2023-02-05T06:35:28;-3.60;99.90
39079;DHT22;24829;49.208;12.080;2023-02-05T06:37:54;-3.50;99.90
39079;DHT22;24829;49.208;12.080;2023-02-05T06:40:19;-3.40;99.90
39079;DHT22;24829;49.208;12.080;2023-02-05T06:42:47;-3.40;99.90
39079;DHT22;24829;49.208;12.080;2023-02-05T06:45:12;-3.40;99.90
39079;DHT22;24829;49.208;12.080;2023-02-05T06:47:38;-3.30;99.90
39079;DHT22;24829;49.208;12.080;2023-02-05T06:50:05;-3.30;99.90
39079;DHT22;24829;49.208;12.080;2023-02-05T06:52:31;-3.30;99.90
39079;DHT22;24829;49.208;12.080;2023-02-05T06:54:56;-3.30;99.90
39079;DHT22;24829;49.208;12.080;2023-02-05T06:57:22;-3.40;99.90
39079;DHT22;24829;49.208;12.080;2023-02-05T06:59:47;-3.30;99.90
39079;DHT22;24829;49.208;12.080;2023-02-05T07:02:13;-3.40;99.90
39079;DHT22;24829;49.208;12.080;2023-02-05T07:04:39;-3.40;99.90
39079;DHT22;24829;49.208;12.080;2023-02-05T07:07:04;-3.50;99.90
39079;DHT22;24829;49.208;12.080;2023-02-05T07:09:30;-3.60;99.90
39079;DHT22;24829;49.208;12.080;2023-02-05T07:11:55;-3.70;99.90
39079;DHT22;24829;49.208;12.080;2023-02-05T07:14:21;-3.80;99.90
39079;DHT22;24829;49.208;12.080;2023-02-05T07:16:46;-3.90;99.90
39079;DHT22;24829;49.208;12.080;2023-02-05T07:19:12;-4.00;99.90
39079;DHT22;24829;49.208;12.080;2023-02-05T07:21:37;-4.00;99.90
39079;DHT22;24829;49.208;12.080;2023-02-05T07:24:03;-4.00;99.90
39079;DHT22;24829;49.208;12.080;2023-02-05T07:26:29;-4.00;99.90
39079;DHT22;24829;49.208;12.080;2023-02-05T07:28:54;-4.00;99.90
39079;DHT22;24829;49.208;12.080;2023-02-05T07:31:21;-3.90;99.90
39079;DHT22;24829;49.208;12.080;2023-02-05T07:33:47;-3.80;99.90
39079;DHT22;24829;49.208;12.080;2023-02-05T07:36:15;-3.70;99.90
39079;DHT22;24829;49.208;12.080;2023-02-05T07:38:41;-3.60;99.90
39079;DHT22;24829;49.208;12.080;2023-02-05T07:41:09;-3.50;99.90
39079;DHT22;24829;49.208;12.080;2023-02-05T07:43:35;-3.30;99.90
39079;DHT22;24829;49.208;12.080;2023-02-05T07:46:03;-3.20;99.90
39079;DHT22;24829;49.208;12.080;2023-02-05T07:48:29;-3.00;99.90
39079;DHT22;24829;49.208;12.080;2023-02-05T07:50:55;-3.00;99.90
39079;DHT22;24829;49.208;12.080;2023-02-05T07:53:21;-2.90;99.90
39079;DHT22;24829;49.208;12.080;2023-02-05T07:55:46;-2.80;99.90
39079;DHT22;24829;49.208;12.080;2023-02-05T07:58:12;-2.70;99.90
39079;DHT22;24829;49.208;12.080;2023-02-05T08:00:37;-2.50;99.90
39079;DHT22;24829;49.208;12.080;2023-02-05T08:03:03;-2.40;99.90
39079;DHT22;24829;49.208;12.080;2023-02-05T08:05:29;-2.40;99.90
39079;DHT22;24829;49.208;12.080;2023-02-05T08:07:55;-2.30;99.90
39079;DHT22;24829;49.208;12.080;2023-02-05T08:10:20;-2.30;99.90
39079;DHT22;24829;49.208;12.080;2023-02-05T08:12:46;-2.30;99.90
39079;DHT22;24829;49.208;12.080;2023-02-05T08:15:11;-2.30;99.90
39079;DHT22;24829;49.208;12.080;2023-02-05T08:17:37;-2.40;99.90
39079;DHT22;24829;49.208;12.080;2023-02-05T08:20:04;-2.30;99.90
39079;DHT22;24829;49.208;12.080;2023-02-05T08:22:36;-2.30;99.90
39079;DHT22;24829;49.208;12.080;2023-02-05T08:25:04;-2.30;99.90
39079;DHT22;24829;49.208;12.080;2023-02-05T08:27:32;-2.20;99.90
39079;DHT22;24829;49.208;12.080;2023-02-05T08:29:57;-2.20;99.90
39079;DHT22;24829;49.208;12.080;2023-02-05T08:32:23;-2.10;99.90
39079;DHT22;24829;49.208;12.080;2023-02-05T08:34:48;-2.00;99.90
39079;DHT22;24829;49.208;12.080;2023-02-05T08:37:14;-1.90;99.90
39079;DHT22;24829;49.208;12.080;2023-02-05T08:39:39;-1.90;99.90
39079;DHT22;24829;49.208;12.080;2023-02-05T08:42:05;-1.70;99.90
39079;DHT22;24829;49.208;12.080;2023-02-05T08:44:30;-1.70;99.90
39079;DHT22;24829;49.208;12.080;2023-02-05T08:46:56;-1.60;99.90
39079;DHT22;24829;49.208;12.080;2023-02-05T08:49:22;-1.60;99.90
39079;DHT22;24829;49.208;12.080;2023-02-05T08:51:47;-1.60;99.90
39079;DHT22;24829;49.208;12.080;2023-02-05T08:54:13;-1.50;99.90
39079;DHT22;24829;49.208;12.080;2023-02-05T08:56:41;-1.50;99.90
39079;DHT22;24829;49.208;12.080;2023-02-05T08:59:07;-1.40;99.90
39079;DHT22;24829;49.208;12.080;2023-02-05T09:01:33;-1.30;99.90
39079;DHT22;24829;49.208;12.080;2023-02-05T09:04:04;-1.20;99.90
39079;DHT22;24829;49.208;12.080;2023-02-05T09:06:30;-1.10;99.90
39079;DHT22;24829;49.208;12.080;2023-02-05T09:08:55;-1.00;99.90
39079;DHT22;24829;49.208;12.080;2023-02-05T09:11:22;-0.90;99.90
39079;DHT22;24829;49.208;12.080;2023-02-05T09:13:48;-0.90;99.90
39079;DHT22;24829;49.208;12.080;2023-02-05T09:16:13;-0.90;99.90
39079;DHT22;24829;49.208;12.080;2023-02-05T09:18:39;-0.90;99.90
39079;DHT22;24829;49.208;12.080;2023-02-05T09:21:06;-0.80;99.90
39079;DHT22;24829;49.208;12.080;2023-02-05T09:23:32;-0.70;99.90
39079;DHT22;24829;49.208;12.080;2023-02-05T09:25:58;-0.70;99.90
39079;DHT22;24829;49.208;12.080;2023-02-05T09:28:24;-0.60;99.90
39079;DHT22;24829;49.208;12.080;2023-02-05T09:30:49;-0.50;99.90
39079;DHT22;24829;49.208;12.080;2023-02-05T09:33:16;-0.40;99.90
39079;DHT22;24829;49.208;12.080;2023-02-05T09:35:42;-0.40;99.90
39079;DHT22;24829;49.208;12.080;2023-02-05T09:38:12;-0.30;99.90
39079;DHT22;24829;49.208;12.080;2023-02-05T09:41:00;-0.30;99.90
39079;DHT22;24829;49.208;12.080;2023-02-05T09:49:21;-0.20;99.90
39079;DHT22;24829;49.208;12.080;2023-02-05T09:51:59;-0.20;99.90
39079;DHT22;24829;49.208;12.080;2023-02-05T09:54:50;-0.10;99.90
39079;DHT22;24829;49.208;12.080;2023-02-05T09:57:24;0.00;99.90
39079;DHT22;24829;49.208;12.080;2023-02-05T09:59:52;0.10;99.90
39079;DHT22;24829;49.208;12.080;2023-02-05T10:02:34;0.20;99.90
39079;DHT22;24829;49.208;12.080;2023-02-05T10:05:01;0.30;99.90
39079;DHT22;24829;49.208;12.080;2023-02-05T10:07:37;0.40;99.90
39079;DHT22;24829;49.208;12.080;2023-02-05T10:10:25;0.50;99.90
39079;DHT22;24829;49.208;12.080;2023-02-05T10:13:13;0.60;99.90
39079;DHT22;24829;49.208;12.080;2023-02-05T10:15:52;0.60;99.90
39079;DHT22;24829;49.208;12.080;2023-02-05T10:21:19;0.80;99.90
39079;DHT22;24829;49.208;12.080;2023-02-05T10:23:58;0.90;99.90
39079;DHT22;24829;49.208;12.080;2023-02-05T10:26:50;1.00;99.90
39079;DHT22;24829;49.208;12.080;2023-02-05T10:32:00;1.10;99.90
39079;DHT22;24829;49.208;12.080;2023-02-05T10:34:43;1.00;99.90
39079;DHT22;24829;49.208;12.080;2023-02-05T10:37:14;1.00;99.90
39079;DHT22;24829;49.208;12.080;2023-02-05T10:39:41;0.90;99.90
39079;DHT22;24829;49.208;12.080;2023-02-05T10:44:49;0.90;99.90
39079;DHT22;24829;49.208;12.080;2023-02-05T10:50:02;0.90;99.90
39079;DHT22;24829;49.208;12.080;2023-02-05T10:52:31;0.90;99.90
39079;DHT22;24829;49.208;12.080;2023-02-05T10:54:56;0.90;99.90
39079;DHT22;24829;49.208;12.080;2023-02-05T10:57:22;1.00;99.90
39079;DHT22;24829;49.208;12.080;2023-02-05T10:59:58;1.00;99.90
39079;DHT22;24829;49.208;12.080;2023-02-05T11:02:38;1.00;99.90
39079;DHT22;24829;49.208;12.080;2023-02-05T11:05:13;1.10;99.90
39079;DHT22;24829;49.208;12.080;2023-02-05T11:07:44;1.20;99.90
39079;DHT22;24829;49.208;12.080;2023-02-05T11:10:23;1.20;99.90
39079;DHT22;24829;49.208;12.080;2023-02-05T11:13:02;1.30;99.90
39079;DHT22;24829;49.208;12.080;2023-02-05T11:15:30;1.30;99.90
39079;DHT22;24829;49.208;12.080;2023-02-05T11:17:59;1.30;99.90
39079;DHT22;24829;49.208;12.080;2023-02-05T11:20:34;1.30;99.90
39079;DHT22;24829;49.208;12.080;2023-02-05T11:23:18;1.30;99.90
39079;DHT22;24829;49.208;12.080;2023-02-05T11:25:54;1.40;99.90
39079;DHT22;24829;49.208;12.080;2023-02-05T11:28:31;1.40;99.90
39079;DHT22;24829;49.208;12.080;2023-02-05T11:31:17;1.50;99.90
39079;DHT22;24829;49.208;12.080;2023-02-05T11:33:44;1.60;99.90
39079;DHT22;24829;49.208;12.080;2023-02-05T11:36:16;1.70;99.90
39079;DHT22;24829;49.208;12.080;2023-02-05T11:41:12;1.70;99.90
39079;DHT22;24829;49.208;12.080;2023-02-05T11:43:50;1.70;99.90
39079;DHT22;24829;49.208;12.080;2023-02-05T11:46:22;1.70;99.90
39079;DHT22;24829;49.208;12.080;2023-02-05T11:48:59;1.70;99.90
39079;DHT22;24829;49.208;12.080;2023-02-05T11:51:39;1.60;99.90
39079;DHT22;24829;49.208;12.080;2023-02-05T11:54:17;1.70;99.90
39079;DHT22;24829;49.208;12.080;2023-02-05T11:57:43;1.80;99.90
39079;DHT22;24829;49.208;12.080;2023-02-05T12:10:17;2.00;99.90
39079;DHT22;24829;49.208;12.080;2023-02-05T12:13:01;2.00;99.90
39079;DHT22;24829;49.208;12.080;2023-02-05T12:15:36;2.10;99.90
39079;DHT22;24829;49.208;12.080;2023-02-05T12:30:53;2.00;99.90
39079;DHT22;24829;49.208;12.080;2023-02-05T12:34:05;2.00;99.90
39079;DHT22;24829;49.208;12.080;2023-02-05T12:41:52;2.00;99.90
39079;DHT22;24829;49.208;12.080;2023-02-05T12:44:45;2.00;99.90
39079;DHT22;24829;49.208;12.080;2023-02-05T12:52:49;2.00;99.90
39079;DHT22;24829;49.208;12.080;2023-02-05T12:55:31;2.00;99.90
39079;DHT22;24829;49.208;12.080;2023-02-05T12:58:02;2.00;99.90
39079;DHT22;24829;49.208;12.080;2023-02-05T13:00:50;2.00;99.90
39079;DHT22;24829;49.208;12.080;2023-02-05T13:08:47;2.00;99.90
39079;DHT22;24829;49.208;12.080;2023-02-05T13:12:06;2.00;99.90
39079;DHT22;24829;49.208;12.080;2023-02-05T13:14:33;2.00;99.90
39079;DHT22;24829;49.208;12.080;2023-02-05T13:17:20;2.10;99.90
39079;DHT22;24829;49.208;12.080;2023-02-05T13:19:51;2.10;99.90
39079;DHT22;24829;49.208;12.080;2023-02-05T13:25:16;2.20;99.90
39079;DHT22;24829;49.208;12.080;2023-02-05T13:28:53;2.20;99.90
39079;DHT22;24829;49.208;12.080;2023-02-05T13:31:12;2.20;99.90
39079;DHT22;24829;49.208;12.080;2023-02-05T13:33:39;2.20;99.90
39079;DHT22;24829;49.208;12.080;2023-02-05T13:59:45;2.20;99.90
39079;DHT22;24829;49.208;12.080;2023-02-05T14:05:06;2.10;99.90
39079;DHT22;24829;49.208;12.080;2023-02-05T14:07:41;2.10;99.90
39079;DHT22;24829;49.208;12.080;2023-02-05T14:10:27;2.10;99.90
39079;DHT22;24829;49.208;12.080;2023-02-05T14:13:12;2.10;99.90
39079;DHT22;24829;49.208;12.080;2023-02-05T14:15:43;2.10;99.90
39079;DHT22;24829;49.208;12.080;2023-02-05T14:18:10;2.10;99.90
39079;DHT22;24829;49.208;12.080;2023-02-05T14:20:39;2.00;99.90
39079;DHT22;24829;49.208;12.080;2023-02-05T14:23:59;2.00;99.90
39079;DHT22;24829;49.208;12.080;2023-02-05T14:26:08;2.00;99.90
39079;DHT22;24829;49.208;12.080;2023-02-05T14:28:35;2.00;99.90
39079;DHT22;24829;49.208;12.080;2023-02-05T14:31:07;2.00;99.90
39079;DHT22;24829;49.208;12.080;2023-02-05T14:33:40;2.00;99.90
39079;DHT22;24829;49.208;12.080;2023-02-05T14:41:14;1.80;99.90
39079;DHT22;24829;49.208;12.080;2023-02-05T14:44:03;1.80;99.90
39079;DHT22;24829;49.208;12.080;2023-02-05T14:48:56;1.80;99.90
39079;DHT22;24829;49.208;12.080;2023-02-05T14:51:40;1.80;99.90
39079;DHT22;24829;49.208;12.080;2023-02-05T14:54:18;1.80;99.90
39079;DHT22;24829;49.208;12.080;2023-02-05T14:56:48;1.80;99.90
39079;DHT22;24829;49.208;12.080;2023-02-05T14:59:38;1.80;99.90
39079;DHT22;24829;49.208;12.080;2023-02-05T15:02:46;1.80;99.90
39079;DHT22;24829;49.208;12.080;2023-02-05T15:05:28;1.80;99.90
39079;DHT22;24829;49.208;12.080;2023-02-05T15:10:35;1.80;99.90
39079;DHT22;24829;49.208;12.080;2023-02-05T15:13:11;1.80;99.90
39079;DHT22;24829;49.208;12.080;2023-02-05T15:15:38;1.70;99.90
39079;DHT22;24829;49.208;12.080;2023-02-05T15:20:37;1.70;99.90
39079;DHT22;24829;49.208;12.080;2023-02-05T15:23:29;1.70;99.90
39079;DHT22;24829;49.208;12.080;2023-02-05T15:26:20;1.70;99.90
39079;DHT22;24829;49.208;12.080;2023-02-05T15:28:56;1.70;99.90
39079;DHT22;24829;49.208;12.080;2023-02-05T15:31:27;1.60;99.90
39079;DHT22;24829;49.208;12.080;2023-02-05T15:34:20;1.60;99.90
39079;DHT22;24829;49.208;12.080;2023-02-05T15:36:55;1.60;99.90
39079;DHT22;24829;49.208;12.080;2023-02-05T15:39:52;1.50;99.90
39079;DHT22;24829;49.208;12.080;2023-02-05T15:44:55;1.40;99.90
39079;DHT22;24829;49.208;12.080;2023-02-05T15:47:22;1.40;99.90
39079;DHT22;24829;49.208;12.080;2023-02-05T15:49:51;1.30;99.90
39079;DHT22;24829;49.208;12.080;2023-02-05T15:52:22;1.30;99.90
39079;DHT22;24829;49.208;12.080;2023-02-05T15:54:50;1.20;99.90
39079;DHT22;24829;49.208;12.080;2023-02-05T15:57:22;1.20;99.90
39079;DHT22;24829;49.208;12.080;2023-02-05T15:59:49;1.10;99.90
39079;DHT22;24829;49.208;12.080;2023-02-05T16:02:25;1.00;99.90
39079;DHT22;24829;49.208;12.080;2023-02-05T16:07:27;1.00;99.90
39079;DHT22;24829;49.208;12.080;2023-02-05T16:09:59;1.00;99.90
39079;DHT22;24829;49.208;12.080;2023-02-05T16:12:25;1.00;99.90
39079;DHT22;24829;49.208;12.080;2023-02-05T16:15:03;0.90;99.90
39079;DHT22;24829;49.208;12.080;2023-02-05T16:17:38;0.90;99.90
39079;DHT22;24829;49.208;12.080;2023-02-05T16:20:15;0.90;99.90
39079;DHT22;24829;49.208;12.080;2023-02-05T16:22:49;0.80;99.90
39079;DHT22;24829;49.208;12.080;2023-02-05T16:25:40;0.80;99.90
39079;DHT22;24829;49.208;12.080;2023-02-05T16:28:41;0.80;99.90
39079;DHT22;24829;49.208;12.080;2023-02-05T16:31:13;0.80;99.90
39079;DHT22;24829;49.208;12.080;2023-02-05T16:33:40;0.70;99.90
39079;DHT22;24829;49.208;12.080;2023-02-05T16:36:15;0.70;99.90
39079;DHT22;24829;49.208;12.080;2023-02-05T16:38:41;0.60;99.90
39079;DHT22;24829;49.208;12.080;2023-02-05T16:41:20;0.60;99.90
39079;DHT22;24829;49.208;12.080;2023-02-05T16:43:46;0.60;99.90
39079;DHT22;24829;49.208;12.080;2023-02-05T16:48:48;0.50;99.90
39079;DHT22;24829;49.208;12.080;2023-02-05T16:59:26;0.40;99.90
39079;DHT22;24829;49.208;12.080;2023-02-05T17:01:54;0.30;99.90
39079;DHT22;24829;49.208;12.080;2023-02-05T17:04:34;0.30;99.90
39079;DHT22;24829;49.208;12.080;2023-02-05T17:07:02;0.30;99.90
39079;DHT22;24829;49.208;12.080;2023-02-05T17:09:35;0.20;99.90
39079;DHT22;24829;49.208;12.080;2023-02-05T17:14:54;0.10;99.90
39079;DHT22;24829;49.208;12.080;2023-02-05T17:17:20;0.10;99.90
39079;DHT22;24829;49.208;12.080;2023-02-05T17:23:05;0.00;99.90
39079;DHT22;24829;49.208;12.080;2023-02-05T17:28:15;0.00;99.90
39079;DHT22;24829;49.208;12.080;2023-02-05T17:30:53;-0.10;99.90
39079;DHT22;24829;49.208;12.080;2023-02-05T17:33:25;-0.10;99.90
39079;DHT22;24829;49.208;12.080;2023-02-05T17:35:50;-0.20;99.90
39079;DHT22;24829;49.208;12.080;2023-02-05T17:38:17;-0.20;99.90
39079;DHT22;24829;49.208;12.080;2023-02-05T17:40:44;-0.30;99.90
39079;DHT22;24829;49.208;12.080;2023-02-05T17:43:10;-0.30;99.90
39079;DHT22;24829;49.208;12.080;2023-02-05T17:45:38;-0.30;99.90
39079;DHT22;24829;49.208;12.080;2023-02-05T17:48:05;-0.40;99.90
39079;DHT22;24829;49.208;12.080;2023-02-05T17:50:31;-0.40;99.90
39079;DHT22;24829;49.208;12.080;2023-02-05T17:52:59;-0.40;99.90
39079;DHT22;24829;49.208;12.080;2023-02-05T17:55:24;-0.40;99.90
39079;DHT22;24829;49.208;12.080;2023-02-05T17:57:50;-0.40;99.90
39079;DHT22;24829;49.208;12.080;2023-02-05T18:00:27;-0.50;99.90
39079;DHT22;24829;49.208;12.080;2023-02-05T18:02:53;-0.50;99.90
39079;DHT22;24829;49.208;12.080;2023-02-05T18:05:18;-0.50;99.90
39079;DHT22;24829;49.208;12.080;2023-02-05T18:07:55;-0.60;99.90
39079;DHT22;24829;49.208;12.080;2023-02-05T18:10:27;-0.70;99.90
39079;DHT22;24829;49.208;12.080;2023-02-05T18:12:53;-0.80;99.90
39079;DHT22;24829;49.208;12.080;2023-02-05T18:15:21;-1.00;99.90